Time;durP1;ratioP1;P1;durP2;ratioP2;P2;SDS_P1;SDS_P2;PMS_P1;PMS_P2;Temp;Humidity;BMP_temperature;BMP_pressure;BME280_temperature;BME280_humidity;BME280_pressure;Samples;Min_cycle;Max_cycle;Signal;HPM_P1;HPM_P2
2022/08/13 00:02:16;;;;;;;2.43;1.57;;;20.50;62.50;;;;;;6062355;23;20475;-74
2022/08/13 00:04:50;;;;;;;2.07;1.53;;;20.50;62.40;;;;;;6062383;23;20448;-74
2022/08/13 00:07:19;;;;;;;1.80;1.70;;;20.50;63.20;;;;;;6062815;23;20940;-74
2022/08/13 00:09:46;;;;;;;1.80;1.70;;;20.50;63.90;;;;;;6062852;23;20475;-75
2022/08/13 00:15:07;;;;;;;1.80;1.70;;;20.30;63.80;;;;;;6062045;23;20970;-74
2022/08/13 00:17:34;;;;;;;1.90;1.70;;;20.20;64.00;;;;;;6062293;23;20779;-74
2022/08/13 00:20:02;;;;;;;1.70;1.50;;;20.10;64.40;;;;;;6062939;23;20459;-74
2022/08/13 00:22:30;;;;;;;1.93;1.60;;;20.10;64.70;;;;;;6062859;23;20524;-74
2022/08/13 00:24:58;;;;;;;1.90;1.80;;;20.10;65.00;;;;;;6062385;23;20440;-74
2022/08/13 00:27:25;;;;;;;1.80;1.70;;;19.90;65.10;;;;;;6062718;23;20431;-74
2022/08/13 00:29:54;;;;;;;2.00;1.80;;;19.90;65.40;;;;;;6062113;23;20523;-74
2022/08/13 00:32:26;;;;;;;1.90;1.80;;;19.70;65.70;;;;;;6062868;23;20453;-74
2022/08/13 00:34:53;;;;;;;2.70;1.87;;;19.60;66.10;;;;;;6062337;23;20853;-74
2022/08/13 00:37:22;;;;;;;1.90;1.80;;;19.60;66.80;;;;;;6062530;23;20526;-74
2022/08/13 00:39:51;;;;;;;2.20;2.00;;;19.50;67.10;;;;;;6062779;23;20431;-74
2022/08/13 00:42:20;;;;;;;4.90;1.70;;;19.40;67.50;;;;;;6062136;23;20825;-74
2022/08/13 00:44:47;;;;;;;2.70;1.83;;;19.40;68.00;;;;;;6062255;23;20469;-74
2022/08/13 00:50:00;;;;;;;1.90;1.80;;;19.30;68.50;;;;;;6062109;23;20942;-74
2022/08/13 00:52:30;;;;;;;1.90;1.80;;;19.30;69.00;;;;;;6062371;23;20752;-74
2022/08/13 00:55:00;;;;;;;2.07;1.80;;;19.20;69.00;;;;;;6061563;23;21009;-74
2022/08/13 00:57:28;;;;;;;1.80;1.47;;;19.20;69.40;;;;;;6063124;23;20423;-74
2022/08/13 00:59:55;;;;;;;1.87;1.77;;;19.10;69.50;;;;;;6062575;23;20424;-74
2022/08/13 01:02:24;;;;;;;2.67;1.90;;;19.10;69.60;;;;;;6062394;23;20506;-74
2022/08/13 01:04:52;;;;;;;1.90;1.80;;;19.00;69.80;;;;;;6061722;23;20439;-74
2022/08/13 01:07:20;;;;;;;2.30;2.20;;;19.00;70.20;;;;;;6062625;23;20831;-74
2022/08/13 01:09:47;;;;;;;2.03;1.83;;;19.00;70.50;;;;;;6062398;23;20446;-74
2022/08/13 01:12:19;;;;;;;2.93;1.70;;;19.00;70.70;;;;;;6063258;23;20453;-74
2022/08/13 01:14:48;;;;;;;1.97;1.77;;;19.00;70.90;;;;;;6063558;23;20514;-74
2022/08/13 01:17:18;;;;;;;1.90;1.80;;;19.00;70.90;;;;;;6063118;23;20973;-74
2022/08/13 01:19:45;;;;;;;1.90;1.80;;;19.00;70.80;;;;;;6063522;23;20506;-74
2022/08/13 01:22:13;;;;;;;1.93;1.83;;;19.00;71.00;;;;;;6064316;23;20517;-74
2022/08/13 01:24:42;;;;;;;2.20;2.00;;;18.90;71.20;;;;;;6063592;23;20439;-74
2022/08/13 01:27:09;;;;;;;1.90;1.63;;;19.00;71.50;;;;;;6063381;23;20486;-74
2022/08/13 01:29:37;;;;;;;2.10;1.83;;;19.00;71.70;;;;;;6063723;23;20447;-74
2022/08/13 01:32:07;;;;;;;1.73;1.63;;;19.00;71.80;;;;;;6063392;23;20427;-74
2022/08/13 01:34:34;;;;;;;2.17;1.70;;;18.90;72.20;;;;;;6063231;23;20446;-74
2022/08/13 01:37:01;;;;;;;2.00;1.80;;;18.90;72.10;;;;;;6063257;23;20640;-74
2022/08/13 01:39:30;;;;;;;1.83;1.70;;;18.90;72.30;;;;;;6063723;23;20435;-74
2022/08/13 01:41:57;;;;;;;1.90;1.80;;;18.90;72.20;;;;;;6063181;23;20849;-74
2022/08/13 01:44:25;;;;;;;1.80;1.70;;;18.90;72.30;;;;;;6063487;23;20466;-74
2022/08/13 01:52:34;;;;;;;2.63;1.80;;;18.90;73.30;;;;;;6063156;23;20937;-74
2022/08/13 01:55:04;;;;;;;2.00;1.90;;;18.80;74.10;;;;;;6062544;23;20966;-74
2022/08/13 01:57:33;;;;;;;2.03;1.93;;;18.80;74.50;;;;;;6063119;23;20420;-74
2022/08/13 02:00:01;;;;;;;1.90;1.80;;;18.70;74.80;;;;;;6063615;23;20529;-74
2022/08/13 02:02:29;;;;;;;1.83;1.73;;;18.70;75.50;;;;;;6063358;23;20466;-74
2022/08/13 02:04:56;;;;;;;2.00;1.70;;;18.60;75.50;;;;;;6062745;23;20470;-74
2022/08/13 02:07:23;;;;;;;1.90;1.80;;;18.60;75.80;;;;;;6063294;23;20462;-74
2022/08/13 02:09:52;;;;;;;2.20;2.00;;;18.60;76.20;;;;;;6063001;23;20433;-74
2022/08/13 02:12:20;;;;;;;1.80;1.70;;;18.60;76.10;;;;;;6063110;23;20446;-74
2022/08/13 02:14:47;;;;;;;2.00;1.80;;;18.60;76.50;;;;;;6063171;23;20451;-74
2022/08/13 02:17:25;;;;;;;3.03;1.63;;;18.30;76.50;;;;;;6062979;23;20431;-74
2022/08/13 02:19:54;;;;;;;2.43;1.90;;;18.50;76.80;;;;;;6051640;23;20461;-74
2022/08/13 02:22:22;;;;;;;1.97;1.77;;;18.60;76.80;;;;;;6063186;23;20447;-74
2022/08/13 02:24:52;;;;;;;1.80;1.70;;;18.60;76.80;;;;;;6063315;23;20475;-75
2022/08/13 02:27:22;;;;;;;3.00;1.90;;;18.60;77.10;;;;;;6063257;23;20938;-74
2022/08/13 02:29:51;;;;;;;2.03;1.93;;;18.60;77.80;;;;;;6063521;23;20427;-74
2022/08/13 02:32:19;;;;;;;2.20;1.73;;;18.50;78.10;;;;;;6062806;23;20911;-74
2022/08/13 02:34:49;;;;;;;1.97;1.87;;;18.50;78.50;;;;;;6063034;23;20808;-74
2022/08/13 02:37:16;;;;;;;2.50;1.67;;;18.50;78.90;;;;;;6063672;23;20422;-74
2022/08/13 02:39:43;;;;;;;3.00;1.90;;;18.50;79.30;;;;;;6063252;23;20482;-74
2022/08/13 02:42:10;;;;;;;2.20;2.10;;;18.40;79.20;;;;;;6062974;23;20498;-74
2022/08/13 02:44:40;;;;;;;1.90;1.80;;;18.40;79.70;;;;;;6063118;23;20447;-74
2022/08/13 02:47:07;;;;;;;1.70;1.60;;;18.30;80.40;;;;;;6062973;23;20497;-74
2022/08/13 02:49:36;;;;;;;2.13;2.03;;;18.30;80.60;;;;;;6062588;23;20771;-74
2022/08/13 02:52:05;;;;;;;2.20;2.00;;;18.30;81.10;;;;;;6061857;23;20502;-74
2022/08/13 02:54:33;;;;;;;2.00;1.90;;;18.30;81.00;;;;;;6062155;23;20990;-74
2022/08/13 02:57:01;;;;;;;2.17;1.87;;;18.30;80.90;;;;;;6062821;23;20427;-74
2022/08/13 02:59:28;;;;;;;1.90;1.80;;;18.30;81.50;;;;;;6063022;23;20427;-74
2022/08/13 03:01:56;;;;;;;2.17;2.07;;;18.20;81.70;;;;;;6062874;23;20490;-74
2022/08/13 03:04:24;;;;;;;2.20;2.00;;;18.30;82.10;;;;;;6063180;23;20437;-74
2022/08/13 03:06:51;;;;;;;2.60;2.00;;;18.20;81.90;;;;;;6062857;23;20810;-75
2022/08/13 03:09:20;;;;;;;2.33;2.10;;;18.20;82.20;;;;;;6063146;23;20427;-74
2022/08/13 03:11:48;;;;;;;2.60;2.40;;;18.20;82.50;;;;;;6062739;23;20493;-74
2022/08/13 03:14:16;;;;;;;2.03;1.90;;;18.40;83.20;;;;;;6062744;23;20451;-74
2022/08/13 03:16:43;;;;;;;2.47;1.70;;;18.20;83.20;;;;;;6062423;23;20466;-74
2022/08/13 03:19:11;;;;;;;2.53;2.20;;;18.20;83.80;;;;;;6063098;23;20775;-74
2022/08/13 03:21:41;;;;;;;2.10;2.00;;;18.20;84.20;;;;;;6063222;23;20427;-74
2022/08/13 03:24:09;;;;;;;2.00;1.90;;;18.20;84.10;;;;;;6062925;23;20467;-74
2022/08/13 03:26:38;;;;;;;2.10;2.00;;;18.10;84.00;;;;;;6062730;23;20412;-74
2022/08/13 03:29:06;;;;;;;2.30;2.10;;;18.20;84.40;;;;;;6062842;23;20490;-74
2022/08/13 03:31:35;;;;;;;2.20;2.00;;;18.10;84.60;;;;;;6063121;23;20428;-74
2022/08/13 03:34:04;;;;;;;4.47;1.83;;;18.10;84.90;;;;;;6062451;23;20478;-74
2022/08/13 03:36:33;;;;;;;2.10;2.00;;;18.10;85.30;;;;;;6062220;23;20470;-74
2022/08/13 03:39:01;;;;;;;2.40;2.27;;;18.00;85.10;;;;;;6063098;23;20431;-74
2022/08/13 03:41:29;;;;;;;2.00;1.77;;;18.00;85.70;;;;;;6062963;23;20451;-74
2022/08/13 03:43:58;;;;;;;2.93;1.90;;;18.00;85.70;;;;;;6062733;23;20970;-74
2022/08/13 03:46:27;;;;;;;2.40;2.10;;;18.00;86.30;;;;;;6062708;23;20425;-74
2022/08/13 03:48:55;;;;;;;2.57;2.37;;;18.00;86.10;;;;;;6062531;23;20902;-74
2022/08/13 03:51:23;;;;;;;2.33;2.13;;;18.00;85.90;;;;;;6062943;23;20419;-74
2022/08/13 03:53:53;;;;;;;2.20;2.00;;;18.00;86.20;;;;;;6062998;23;20439;-74
2022/08/13 03:56:24;;;;;;;2.47;2.27;;;18.00;86.80;;;;;;6062447;23;20463;-74
2022/08/13 03:58:51;;;;;;;2.20;2.10;;;17.90;86.70;;;;;;6062980;23;20415;-74
2022/08/13 04:01:19;;;;;;;2.60;2.40;;;18.10;87.10;;;;;;6062840;23;20419;-74
2022/08/13 04:03:47;;;;;;;2.93;2.73;;;17.90;87.40;;;;;;6062565;23;20471;-74
2022/08/13 04:06:16;;;;;;;2.40;2.30;;;17.90;87.90;;;;;;6062158;23;20423;-74
2022/08/13 04:08:45;;;;;;;2.37;2.17;;;17.90;88.10;;;;;;6062766;23;20605;-74
2022/08/13 04:11:17;;;;;;;2.20;2.10;;;17.80;87.90;;;;;;6062744;23;20814;-74
2022/08/13 04:13:45;;;;;;;1.90;1.80;;;17.90;88.30;;;;;;6062601;23;20447;-74
2022/08/13 04:16:15;;;;;;;2.50;2.30;;;17.80;88.40;;;;;;6062480;23;20411;-74
2022/08/13 04:18:44;;;;;;;2.10;1.90;;;17.80;88.70;;;;;;6062727;23;20415;-74
2022/08/13 04:21:14;;;;;;;1.90;1.80;;;17.80;88.90;;;;;;6062782;23;20431;-74
2022/08/13 04:23:43;;;;;;;2.77;2.47;;;17.80;89.40;;;;;;6062751;23;20561;-74
2022/08/13 04:26:13;;;;;;;2.63;2.13;;;17.90;89.90;;;;;;6062141;23;20423;-74
2022/08/13 04:28:43;;;;;;;2.40;2.20;;;17.80;90.00;;;;;;6062341;23;20838;-74
2022/08/13 04:31:11;;;;;;;2.77;2.50;;;17.80;90.20;;;;;;6062673;23;20419;-74
2022/08/13 04:33:38;;;;;;;3.60;2.60;;;17.80;90.30;;;;;;6062314;23;20807;-74
2022/08/13 04:36:07;;;;;;;2.40;2.20;;;17.80;90.50;;;;;;6062144;23;20822;-75
2022/08/13 04:38:35;;;;;;;2.10;2.00;;;17.80;90.30;;;;;;6062754;23;20481;-74
2022/08/13 04:41:02;;;;;;;2.20;2.10;;;17.80;90.30;;;;;;6062406;23;20929;-74
2022/08/13 04:43:30;;;;;;;2.40;2.20;;;17.80;90.40;;;;;;6062437;23;20467;-75
2022/08/13 04:46:00;;;;;;;2.60;2.40;;;17.80;90.40;;;;;;6061615;23;20635;-74
2022/08/13 04:48:31;;;;;;;2.87;2.67;;;17.80;90.30;;;;;;6062379;23;20787;-74
2022/08/13 04:50:59;;;;;;;2.60;2.40;;;17.80;90.30;;;;;;6052101;23;20426;-74
2022/08/13 04:53:27;;;;;;;2.70;2.50;;;17.90;90.30;;;;;;6062414;23;20530;-74
2022/08/13 04:55:55;;;;;;;2.50;2.30;;;18.10;90.40;;;;;;6062366;23;20435;-74
2022/08/13 04:58:23;;;;;;;2.73;2.47;;;17.90;90.10;;;;;;6062643;23;20506;-74
2022/08/13 05:00:51;;;;;;;3.43;2.53;;;17.90;90.10;;;;;;6062297;23;20858;-74
2022/08/13 05:03:21;;;;;;;3.10;2.40;;;17.90;90.30;;;;;;6062230;23;20495;-74
2022/08/13 05:05:51;;;;;;;3.03;2.17;;;17.90;90.70;;;;;;6061899;23;20423;-74
2022/08/13 05:08:19;;;;;;;2.50;2.30;;;18.00;91.00;;;;;;6062530;23;20423;-74
2022/08/13 05:10:48;;;;;;;2.57;2.37;;;18.00;91.10;;;;;;6062289;23;20477;-74
2022/08/13 05:13:27;;;;;;;2.53;2.33;;;18.00;91.20;;;;;;6061887;23;20444;-74
2022/08/13 05:15:55;;;;;;;2.50;2.30;;;18.20;91.20;;;;;;6062324;23;20411;-75
2022/08/13 05:18:24;;;;;;;2.77;2.30;;;18.10;90.90;;;;;;6062601;23;20458;-75
2022/08/13 05:20:53;;;;;;;3.10;2.40;;;18.10;90.90;;;;;;6062336;23;20419;-74
2022/08/13 05:23:21;;;;;;;2.47;2.27;;;18.20;90.80;;;;;;6062160;23;20542;-74
2022/08/13 05:25:50;;;;;;;2.87;2.67;;;18.20;90.50;;;;;;6061989;23;20775;-74
2022/08/13 05:28:17;;;;;;;2.57;2.37;;;18.30;90.40;;;;;;6062432;23;20510;-74
2022/08/13 05:30:46;;;;;;;2.50;2.40;;;18.40;90.40;;;;;;6063896;23;20498;-75
2022/08/13 05:33:16;;;;;;;3.20;2.30;;;18.50;90.30;;;;;;6063343;23;20651;-74
2022/08/13 05:35:47;;;;;;;2.60;2.40;;;18.50;90.10;;;;;;6062324;23;20419;-74
2022/08/13 05:38:15;;;;;;;2.50;2.37;;;18.60;90.00;;;;;;6062098;23;21189;-74
2022/08/13 05:40:43;;;;;;;2.60;2.40;;;18.70;89.70;;;;;;6062167;23;20442;-75
2022/08/13 05:43:13;;;;;;;2.23;2.13;;;18.70;89.40;;;;;;6061979;23;20461;-74
2022/08/13 05:45:41;;;;;;;2.27;2.17;;;18.80;89.50;;;;;;6061722;23;20891;-75
2022/08/13 05:48:09;;;;;;;2.40;2.20;;;18.90;89.00;;;;;;6062211;23;20427;-75
2022/08/13 05:50:37;;;;;;;2.50;2.30;;;18.90;88.70;;;;;;6061738;23;20486;-75
2022/08/13 05:53:11;;;;;;;3.47;2.37;;;19.00;88.40;;;;;;6062404;23;20478;-74
2022/08/13 05:55:40;;;;;;;3.80;2.53;;;19.10;88.10;;;;;;6061988;23;20423;-74
2022/08/13 05:58:10;;;;;;;2.80;2.60;;;19.10;87.80;;;;;;6063386;23;20446;-74
2022/08/13 06:03:26;;;;;;;2.10;2.00;;;19.30;87.60;;;;;;6063001;23;20548;-74
2022/08/13 06:05:54;;;;;;;2.30;2.10;;;19.40;87.40;;;;;;6063301;23;20502;-74
2022/08/13 06:08:27;;;;;;;2.83;1.97;;;19.50;87.10;;;;;;6063932;23;20428;-75
2022/08/13 06:10:54;;;;;;;2.40;2.30;;;19.50;86.60;;;;;;6063441;23;20517;-74
2022/08/13 06:13:21;;;;;;;2.30;2.13;;;19.60;86.30;;;;;;6063172;23;20740;-74
2022/08/13 06:15:57;;;;;;;2.50;2.30;;;19.70;86.00;;;;;;6062966;23;20976;-75
2022/08/13 06:18:27;;;;;;;2.43;2.23;;;19.80;85.70;;;;;;6063677;23;20421;-75
2022/08/13 06:20:55;;;;;;;2.83;2.27;;;19.90;85.60;;;;;;6038193;23;20420;-75
2022/08/13 06:23:26;;;;;;;3.00;2.13;;;20.00;85.80;;;;;;6062995;23;20455;-75
2022/08/13 06:25:54;;;;;;;2.50;2.30;;;20.00;85.30;;;;;;6062883;23;20426;-74
2022/08/13 06:28:22;;;;;;;2.03;1.93;;;20.10;84.80;;;;;;6062888;23;20931;-74
2022/08/13 06:30:51;;;;;;;2.50;2.30;;;20.20;84.10;;;;;;6063516;23;20424;-75
2022/08/13 06:33:20;;;;;;;3.20;2.43;;;20.30;84.10;;;;;;6063186;23;20844;-75
2022/08/13 06:35:49;;;;;;;2.30;2.20;;;20.40;84.00;;;;;;6063203;23;20492;-75
2022/08/13 06:38:18;;;;;;;2.43;2.23;;;20.50;83.70;;;;;;6063448;23;20468;-75
2022/08/13 06:40:48;;;;;;;2.37;2.17;;;20.60;83.70;;;;;;6063086;23;20962;-76
2022/08/13 06:43:18;;;;;;;2.17;1.97;;;20.70;83.00;;;;;;6063412;23;20500;-75
2022/08/13 06:45:46;;;;;;;2.23;1.90;;;21.00;82.50;;;;;;6062432;23;20434;-75
2022/08/13 06:48:14;;;;;;;2.03;1.93;;;20.90;81.80;;;;;;6063486;23;20428;-75
2022/08/13 06:50:41;;;;;;;2.37;1.80;;;21.10;81.60;;;;;;6062978;23;20505;-75
2022/08/13 06:53:10;;;;;;;2.77;2.50;;;21.20;81.10;;;;;;6062853;23;20526;-74
2022/08/13 06:55:40;;;;;;;2.30;2.10;;;21.40;80.50;;;;;;6063055;23;20419;-75
2022/08/13 06:58:11;;;;;;;2.37;2.17;;;21.50;79.80;;;;;;6063346;23;20435;-75
2022/08/13 07:00:41;;;;;;;2.47;2.27;;;21.70;78.70;;;;;;6062963;23;21239;-75
2022/08/13 07:03:09;;;;;;;2.37;2.17;;;21.80;78.80;;;;;;6063335;23;20447;-75
2022/08/13 07:05:38;;;;;;;2.70;2.03;;;22.00;78.20;;;;;;6062552;23;20439;-75
2022/08/13 07:08:07;;;;;;;2.33;2.13;;;22.20;77.30;;;;;;6063316;23;20415;-75
2022/08/13 07:10:35;;;;;;;2.17;2.07;;;22.50;76.50;;;;;;6063098;23;20451;-75
2022/08/13 07:13:05;;;;;;;2.47;2.10;;;22.80;75.90;;;;;;6062824;23;20530;-75
2022/08/13 07:15:33;;;;;;;2.50;2.30;;;23.30;74.60;;;;;;6063235;23;20422;-75
2022/08/13 07:18:00;;;;;;;2.37;2.10;;;23.70;73.20;;;;;;6063087;23;20752;-76
2022/08/13 07:20:27;;;;;;;2.43;2.23;;;24.10;71.80;;;;;;6063148;23;20979;-75
2022/08/13 07:22:55;;;;;;;2.10;2.00;;;24.50;71.10;;;;;;6063061;23;21164;-75
2022/08/13 07:25:24;;;;;;;3.03;1.93;;;24.90;70.40;;;;;;6063255;23;20424;-75
2022/08/13 07:27:52;;;;;;;2.37;2.23;;;25.30;68.80;;;;;;6062674;23;20427;-75
2022/08/13 07:30:20;;;;;;;2.00;1.90;;;25.70;67.50;;;;;;6062996;23;20431;-75
2022/08/13 07:32:50;;;;;;;2.30;2.10;;;26.10;65.90;;;;;;6062817;23;20479;-75
2022/08/13 07:35:18;;;;;;;2.17;1.97;;;26.30;65.30;;;;;;6062476;23;20968;-76
2022/08/13 07:37:46;;;;;;;2.23;1.93;;;26.50;64.60;;;;;;6063186;23;20453;-75
2022/08/13 07:40:13;;;;;;;2.30;2.10;;;26.80;64.10;;;;;;6063271;23;20423;-76
2022/08/13 07:42:43;;;;;;;2.90;2.20;;;27.00;62.30;;;;;;6062872;23;20467;-75
2022/08/13 07:45:12;;;;;;;2.10;2.00;;;27.00;61.50;;;;;;6062633;23;20466;-75
2022/08/13 07:47:44;;;;;;;2.27;2.07;;;27.00;62.50;;;;;;6063001;23;20424;-75
2022/08/13 07:50:14;;;;;;;2.10;1.90;;;27.20;62.10;;;;;;6062782;23;20447;-75
2022/08/13 07:52:41;;;;;;;2.43;2.27;;;27.50;61.70;;;;;;6063178;23;20523;-75
2022/08/13 07:55:09;;;;;;;2.53;2.30;;;27.90;61.30;;;;;;6062659;23;20502;-75
2022/08/13 07:57:45;;;;;;;2.70;1.97;;;28.10;60.20;;;;;;6062815;23;20998;-75
2022/08/13 08:00:18;;;;;;;2.00;1.90;;;28.30;59.50;;;;;;6062692;23;20977;-75
2022/08/13 08:02:45;;;;;;;2.23;2.03;;;28.40;58.20;;;;;;6062791;23;20447;-75
2022/08/13 08:05:14;;;;;;;2.00;1.90;;;28.30;58.20;;;;;;6062819;23;20521;-75
2022/08/13 08:07:42;;;;;;;3.70;2.00;;;28.30;58.60;;;;;;6062938;23;20470;-76
2022/08/13 08:10:10;;;;;;;2.10;2.00;;;28.50;57.80;;;;;;6062872;23;20454;-75
2022/08/13 08:12:37;;;;;;;2.60;2.50;;;28.70;57.10;;;;;;6062323;23;20463;-76
2022/08/13 08:15:07;;;;;;;2.47;2.33;;;28.60;56.80;;;;;;6062323;23;20835;-76
2022/08/13 08:17:34;;;;;;;3.70;2.10;;;28.30;58.00;;;;;;6063204;23;20514;-76
2022/08/13 08:20:02;;;;;;;2.20;1.87;;;28.60;57.70;;;;;;6062554;23;20932;-76
2022/08/13 08:22:31;;;;;;;2.37;2.10;;;28.70;57.40;;;;;;6062369;23;20773;-75
2022/08/13 08:25:00;;;;;;;2.73;2.07;;;28.50;57.00;;;;;;6062203;23;20507;-75
2022/08/13 08:27:27;;;;;;;2.03;1.93;;;27.70;57.60;;;;;;6062525;23;20423;-75
2022/08/13 08:29:54;;;;;;;2.20;2.10;;;27.30;58.60;;;;;;6062976;23;20522;-75
2022/08/13 08:32:21;;;;;;;2.00;1.90;;;27.10;59.50;;;;;;6062651;23;20474;-75
2022/08/13 08:34:50;;;;;;;2.00;1.90;;;27.30;59.80;;;;;;6062783;23;20478;-75
2022/08/13 08:42:51;;;;;;;2.10;2.00;;;27.80;58.10;;;;;;6062332;23;20458;-75
2022/08/13 08:45:20;;;;;;;2.60;2.07;;;28.00;58.10;;;;;;6062268;23;20562;-75
2022/08/13 08:47:49;;;;;;;4.07;2.30;;;28.00;58.20;;;;;;6062446;23;20434;-75
2022/08/13 08:50:17;;;;;;;2.83;2.23;;;27.90;58.10;;;;;;6062639;23;20510;-75
2022/08/13 08:55:37;;;;;;;2.17;2.03;;;28.10;58.70;;;;;;6025992;23;20923;-75
2022/08/13 08:58:06;;;;;;;1.90;1.80;;;28.40;57.80;;;;;;6062298;23;20434;-75
2022/08/13 09:00:36;;;;;;;2.77;2.50;;;28.50;57.10;;;;;;6062196;23;20427;-75
2022/08/13 09:03:04;;;;;;;2.70;2.40;;;28.30;57.00;;;;;;6062292;23;20802;-75
2022/08/13 09:05:32;;;;;;;2.83;2.10;;;28.00;57.60;;;;;;6062098;23;20462;-75
2022/08/13 09:08:01;;;;;;;2.47;2.30;;;28.00;57.70;;;;;;6062801;23;20435;-77
2022/08/13 09:10:28;;;;;;;3.20;2.40;;;28.10;57.90;;;;;;6062426;23;20431;-76
2022/08/13 09:12:56;;;;;;;2.50;2.40;;;28.40;57.30;;;;;;6062031;23;20807;-76
2022/08/13 09:15:23;;;;;;;2.20;2.00;;;28.50;56.90;;;;;;6062071;23;20838;-75
2022/08/13 09:17:51;;;;;;;2.20;2.10;;;28.40;56.40;;;;;;6062383;23;20431;-76
2022/08/13 09:20:20;;;;;;;2.40;2.27;;;28.40;56.80;;;;;;6062351;23;20427;-75
2022/08/13 09:23:00;;;;;;;2.00;1.90;;;28.50;57.20;;;;;;6062024;23;20451;-75
2022/08/13 09:25:27;;;;;;;2.27;2.07;;;28.60;56.30;;;;;;6061525;23;20474;-75
2022/08/13 09:27:56;;;;;;;2.63;2.33;;;28.80;55.50;;;;;;6062491;23;20424;-75
2022/08/13 09:30:24;;;;;;;2.43;2.23;;;29.20;55.50;;;;;;6062542;23;20461;-75
2022/08/13 09:32:54;;;;;;;2.10;1.97;;;29.60;54.50;;;;;;6062918;23;20447;-75
2022/08/13 09:35:21;;;;;;;2.23;2.00;;;29.90;54.40;;;;;;6063325;23;20415;-76
2022/08/13 09:37:50;;;;;;;2.23;2.03;;;30.30;53.30;;;;;;6063532;23;20434;-75
2022/08/13 09:40:18;;;;;;;2.70;2.50;;;30.70;53.10;;;;;;6063344;23;20423;-75
2022/08/13 09:42:51;;;;;;;2.00;1.70;;;31.40;51.90;;;;;;6063683;23;20498;-75
2022/08/13 09:45:19;;;;;;;2.27;2.10;;;31.80;50.50;;;;;;6063255;23;20897;-75
2022/08/13 09:47:47;;;;;;;2.40;2.27;;;31.70;50.60;;;;;;6063630;23;20519;-75
2022/08/13 09:50:14;;;;;;;2.10;1.90;;;31.20;50.20;;;;;;6063469;23;20423;-75
2022/08/13 09:52:41;;;;;;;2.20;2.00;;;30.90;50.80;;;;;;6063467;23;20802;-75
2022/08/13 09:55:09;;;;;;;1.80;1.70;;;31.20;50.40;;;;;;6062800;23;20462;-75
2022/08/13 09:57:48;;;;;;;2.03;1.93;;;31.60;50.50;;;;;;6063206;23;20827;-76
2022/08/13 10:00:20;;;;;;;4.33;2.10;;;32.10;49.90;;;;;;6063401;23;20775;-76
2022/08/13 10:02:50;;;;;;;1.70;1.60;;;32.70;48.50;;;;;;6063252;23;20471;-75
2022/08/13 10:05:19;;;;;;;2.73;1.83;;;33.20;48.20;;;;;;6062939;23;20503;-76
2022/08/13 10:07:46;;;;;;;2.27;1.80;;;33.50;47.80;;;;;;6063584;23;20442;-76
2022/08/13 10:10:13;;;;;;;2.20;1.97;;;33.70;47.30;;;;;;6063594;23;20984;-76
2022/08/13 10:12:41;;;;;;;2.10;2.00;;;33.40;47.00;;;;;;6063316;23;20463;-76
2022/08/13 10:15:09;;;;;;;3.17;1.87;;;33.60;46.90;;;;;;6062951;23;20486;-76
2022/08/13 10:17:48;;;;;;;1.97;1.70;;;33.70;46.50;;;;;;6062955;23;20938;-75
2022/08/13 10:20:19;;;;;;;1.90;1.80;;;33.80;45.80;;;;;;6063492;23;20419;-75
2022/08/13 10:22:46;;;;;;;2.07;1.70;;;34.00;44.90;;;;;;6063325;23;20451;-76
2022/08/13 10:25:14;;;;;;;2.17;1.90;;;34.20;44.30;;;;;;6063127;23;20463;-76
2022/08/13 10:27:41;;;;;;;2.17;1.57;;;34.20;43.90;;;;;;6062722;23;20946;-75
2022/08/13 10:30:09;;;;;;;2.90;1.60;;;33.40;42.90;;;;;;6063264;23;20459;-75
2022/08/13 10:32:37;;;;;;;1.90;1.80;;;31.70;44.70;;;;;;6062962;23;21015;-75
2022/08/13 10:35:05;;;;;;;2.10;1.90;;;30.40;46.90;;;;;;6063148;23;20510;-75
2022/08/13 10:37:34;;;;;;;1.90;1.80;;;29.90;48.30;;;;;;6062422;23;20427;-76
2022/08/13 10:40:01;;;;;;;1.93;1.83;;;30.30;48.70;;;;;;6062774;23;20554;-75
2022/08/13 10:42:31;;;;;;;2.80;1.70;;;30.80;47.00;;;;;;6063079;23;20447;-75
2022/08/13 10:44:58;;;;;;;1.90;1.80;;;31.20;46.50;;;;;;6062867;23;20475;-76
2022/08/13 10:47:25;;;;;;;2.40;1.80;;;31.60;46.50;;;;;;6063308;23;20740;-75
2022/08/13 10:49:52;;;;;;;1.70;1.60;;;32.40;45.40;;;;;;6063101;23;20496;-75
2022/08/13 10:52:20;;;;;;;1.70;1.60;;;32.80;44.40;;;;;;6062943;23;20534;-76
2022/08/13 10:54:49;;;;;;;1.73;1.60;;;33.10;43.60;;;;;;6062835;23;20926;-75
2022/08/13 10:57:16;;;;;;;3.27;1.73;;;33.60;43.00;;;;;;6063304;23;20824;-75
2022/08/13 10:59:45;;;;;;;2.00;1.73;;;33.40;42.60;;;;;;6062868;23;20423;-75
2022/08/13 11:02:13;;;;;;;1.70;1.60;;;32.70;41.90;;;;;;6063187;23;20451;-75
2022/08/13 11:04:41;;;;;;;1.77;1.67;;;31.60;43.20;;;;;;6062829;23;20463;-75
2022/08/13 11:07:11;;;;;;;2.17;1.80;;;30.90;44.00;;;;;;6062696;23;20807;-75
2022/08/13 11:09:39;;;;;;;2.47;1.57;;;30.80;44.50;;;;;;6062551;23;20423;-75
2022/08/13 11:12:10;;;;;;;1.70;1.60;;;31.10;44.70;;;;;;6062942;23;20574;-76
2022/08/13 11:14:41;;;;;;;1.90;1.60;;;31.80;45.50;;;;;;6062945;23;20469;-77
2022/08/13 11:17:09;;;;;;;2.00;1.90;;;32.50;43.30;;;;;;6063071;23;20424;-75
2022/08/13 11:19:40;;;;;;;1.80;1.70;;;33.10;42.90;;;;;;6063039;23;20423;-76
2022/08/13 11:22:07;;;;;;;1.53;1.43;;;33.60;42.30;;;;;;6062994;23;20791;-76
2022/08/13 11:24:35;;;;;;;1.90;1.80;;;33.60;41.80;;;;;;6062828;23;20459;-76
2022/08/13 11:27:02;;;;;;;1.60;1.50;;;34.00;42.00;;;;;;6062731;23;20911;-75
2022/08/13 11:29:31;;;;;;;1.93;1.83;;;34.40;41.20;;;;;;6063074;23;20902;-76
2022/08/13 11:31:58;;;;;;;2.47;1.90;;;34.80;40.80;;;;;;6062897;23;20626;-76
2022/08/13 11:34:26;;;;;;;1.90;1.80;;;35.20;40.50;;;;;;6062757;23;20424;-75
2022/08/13 11:36:53;;;;;;;1.70;1.60;;;35.60;39.70;;;;;;6062450;23;20518;-76
2022/08/13 11:39:21;;;;;;;1.93;1.57;;;35.80;39.20;;;;;;6062940;23;20458;-76
2022/08/13 11:41:48;;;;;;;1.60;1.40;;;36.00;38.40;;;;;;6063130;23;20483;-75
2022/08/13 11:44:16;;;;;;;1.70;1.60;;;36.30;38.30;;;;;;6063250;23;20431;-75
2022/08/13 11:46:44;;;;;;;1.53;1.43;;;36.30;38.10;;;;;;6064794;23;20508;-75
2022/08/13 11:49:11;;;;;;;2.03;1.90;;;36.20;38.70;;;;;;6062601;23;21009;-75
2022/08/13 11:51:38;;;;;;;1.87;1.60;;;36.20;38.20;;;;;;6063044;23;20834;-75
2022/08/13 11:54:06;;;;;;;1.60;1.50;;;35.70;38.00;;;;;;6062932;23;20451;-75
2022/08/13 11:56:33;;;;;;;1.60;1.50;;;35.00;38.80;;;;;;6062244;23;20487;-75
2022/08/13 11:59:00;;;;;;;2.10;1.90;;;35.10;38.70;;;;;;6063070;23;20473;-75
2022/08/13 12:01:27;;;;;;;1.80;1.70;;;35.40;39.10;;;;;;6062253;23;20434;-75
2022/08/13 12:03:56;;;;;;;2.70;1.70;;;35.40;37.90;;;;;;6063370;23;20497;-76
2022/08/13 12:06:23;;;;;;;1.73;1.63;;;35.60;38.50;;;;;;6062620;23;20609;-75
2022/08/13 12:08:50;;;;;;;2.20;2.00;;;36.00;37.20;;;;;;6063032;23;20439;-76
2022/08/13 12:11:17;;;;;;;1.93;1.63;;;36.10;37.60;;;;;;6062744;23;20470;-76
2022/08/13 12:13:44;;;;;;;1.70;1.60;;;36.50;37.70;;;;;;6062395;23;20440;-75
2022/08/13 12:16:11;;;;;;;1.50;1.40;;;36.60;36.70;;;;;;6062356;23;20791;-75
2022/08/13 12:18:38;;;;;;;2.27;2.07;;;36.70;36.90;;;;;;6062972;23;20431;-75
2022/08/13 12:21:07;;;;;;;1.90;1.80;;;36.70;37.00;;;;;;6062755;23;20435;-75
2022/08/13 12:23:34;;;;;;;1.77;1.67;;;36.50;36.90;;;;;;6062712;23;20957;-75
2022/08/13 12:26:01;;;;;;;1.77;1.67;;;36.50;36.80;;;;;;6062489;23;20490;-75
2022/08/13 12:28:29;;;;;;;1.90;1.70;;;35.80;36.60;;;;;;6062326;23;20864;-75
2022/08/13 12:30:58;;;;;;;1.53;1.43;;;35.40;37.70;;;;;;6062741;23;20419;-75
2022/08/13 12:33:26;;;;;;;1.60;1.50;;;35.40;37.60;;;;;;6062852;23;20448;-75
2022/08/13 12:35:53;;;;;;;2.13;2.00;;;35.40;37.90;;;;;;6062423;23;20930;-75
2022/08/13 12:38:22;;;;;;;1.70;1.60;;;35.70;37.30;;;;;;6062768;23;20438;-75
2022/08/13 12:40:49;;;;;;;2.00;1.80;;;34.80;37.80;;;;;;6062682;23;20427;-75
2022/08/13 12:43:16;;;;;;;2.83;2.07;;;34.70;38.50;;;;;;6062024;23;20478;-76
2022/08/13 12:45:43;;;;;;;1.97;1.80;;;34.80;38.50;;;;;;6062528;23;20498;-75
2022/08/13 12:48:13;;;;;;;1.67;1.57;;;35.00;38.30;;;;;;6062883;23;20431;-75
2022/08/13 12:50:42;;;;;;;2.93;1.70;;;35.50;38.50;;;;;;6062277;23;20427;-75
2022/08/13 12:53:09;;;;;;;1.40;1.30;;;35.90;36.40;;;;;;6062342;23;20439;-75
2022/08/13 12:55:39;;;;;;;1.80;1.70;;;36.50;36.00;;;;;;6062088;23;20423;-75
2022/08/13 12:58:14;;;;;;;3.70;2.13;;;36.60;36.00;;;;;;6062676;23;20450;-75
2022/08/13 13:00:42;;;;;;;2.40;1.80;;;37.00;36.50;;;;;;6062746;23;20434;-75
2022/08/13 13:03:09;;;;;;;1.80;1.70;;;37.50;35.50;;;;;;6062058;23;20529;-75
2022/08/13 13:05:37;;;;;;;1.70;1.60;;;37.20;36.00;;;;;;6062049;23;20467;-75
2022/08/13 13:08:14;;;;;;;1.60;1.50;;;36.90;35.50;;;;;;6063328;23;20427;-74
2022/08/13 13:10:43;;;;;;;2.03;1.80;;;36.30;36.30;;;;;;6063473;23;20433;-75
2022/08/13 13:13:11;;;;;;;2.50;1.60;;;36.00;35.70;;;;;;6063831;23;20446;-75
2022/08/13 13:15:39;;;;;;;2.37;1.67;;;36.00;36.20;;;;;;6063511;23;20606;-75
2022/08/13 13:18:11;;;;;;;1.47;1.30;;;36.00;36.00;;;;;;6063812;23;20450;-77